sensor_id;sensor_type;location;lat;lon;timestamp;pressure;altitude;pressure_sealevel;temperature;humidity
58975;BME280;44751;52.236;5.178;2022-07-06T00:02:03;102469.91;;;12.78;100.00
58975;BME280;44751;52.236;5.178;2022-07-06T00:04:29;102465.59;;;12.85;100.00
58975;BME280;44751;52.236;5.178;2022-07-06T00:06:59;102464.00;;;12.83;100.00
58975;BME280;44751;52.236;5.178;2022-07-06T00:09:25;102467.94;;;12.70;100.00
58975;BME280;44751;52.236;5.178;2022-07-06T00:11:54;102480.88;;;12.76;100.00
58975;BME280;44751;52.236;5.178;2022-07-06T00:14:21;102460.16;;;12.85;100.00
58975;BME280;44751;52.236;5.178;2022-07-06T00:16:47;102471.91;;;12.94;100.00
58975;BME280;44751;52.236;5.178;2022-07-06T00:19:14;102468.28;;;12.85;100.00
58975;BME280;44751;52.236;5.178;2022-07-06T00:21:40;102471.16;;;12.84;100.00
58975;BME280;44751;52.236;5.178;2022-07-06T00:24:07;102468.53;;;12.92;100.00
58975;BME280;44751;52.236;5.178;2022-07-06T00:26:34;102473.44;;;12.97;100.00
58975;BME280;44751;52.236;5.178;2022-07-06T00:29:00;102469.13;;;12.86;100.00
58975;BME280;44751;52.236;5.178;2022-07-06T00:31:30;102467.28;;;12.86;100.00
58975;BME280;44751;52.236;5.178;2022-07-06T00:33:59;102465.72;;;12.84;100.00
58975;BME280;44751;52.236;5.178;2022-07-06T00:36:25;102462.75;;;12.95;100.00
58975;BME280;44751;52.236;5.178;2022-07-06T00:38:58;102456.16;;;12.89;100.00
58975;BME280;44751;52.236;5.178;2022-07-06T00:41:25;102464.66;;;12.76;100.00
58975;BME280;44751;52.236;5.178;2022-07-06T00:43:56;102472.06;;;12.74;100.00
58975;BME280;44751;52.236;5.178;2022-07-06T00:46:31;102464.72;;;12.85;100.00
58975;BME280;44751;52.236;5.178;2022-07-06T00:48:58;102461.06;;;12.76;100.00
58975;BME280;44751;52.236;5.178;2022-07-06T00:51:32;102465.09;;;12.72;100.00
58975;BME280;44751;52.236;5.178;2022-07-06T00:54:03;102469.91;;;12.78;100.00
58975;BME280;44751;52.236;5.178;2022-07-06T00:56:31;102464.34;;;12.80;100.00
58975;BME280;44751;52.236;5.178;2022-07-06T00:59:00;102470.06;;;12.76;100.00
58975;BME280;44751;52.236;5.178;2022-07-06T01:01:29;102471.97;;;12.84;100.00
58975;BME280;44751;52.236;5.178;2022-07-06T01:03:56;102471.53;;;12.89;100.00
58975;BME280;44751;52.236;5.178;2022-07-06T01:06:23;102477.63;;;12.73;100.00
58975;BME280;44751;52.236;5.178;2022-07-06T01:08:53;102479.44;;;12.82;100.00
58975;BME280;44751;52.236;5.178;2022-07-06T01:11:23;102480.75;;;12.78;100.00
58975;BME280;44751;52.236;5.178;2022-07-06T01:13:50;102464.00;;;12.64;100.00
58975;BME280;44751;52.236;5.178;2022-07-06T01:16:17;102476.84;;;12.62;100.00
58975;BME280;44751;52.236;5.178;2022-07-06T01:18:44;102471.44;;;12.62;100.00
58975;BME280;44751;52.236;5.178;2022-07-06T01:21:14;102474.00;;;12.64;100.00
58975;BME280;44751;52.236;5.178;2022-07-06T01:23:46;102479.13;;;12.67;100.00
58975;BME280;44751;52.236;5.178;2022-07-06T01:26:15;102474.16;;;12.62;100.00
58975;BME280;44751;52.236;5.178;2022-07-06T01:28:43;102473.59;;;12.59;100.00
58975;BME280;44751;52.236;5.178;2022-07-06T01:31:18;102463.91;;;12.56;100.00
58975;BME280;44751;52.236;5.178;2022-07-06T01:33:49;102463.53;;;12.69;100.00
58975;BME280;44751;52.236;5.178;2022-07-06T01:36:15;102461.94;;;12.76;100.00
58975;BME280;44751;52.236;5.178;2022-07-06T01:38:52;102461.13;;;12.66;100.00
58975;BME280;44751;52.236;5.178;2022-07-06T01:41:22;102456.75;;;12.65;100.00
58975;BME280;44751;52.236;5.178;2022-07-06T01:43:49;102451.03;;;12.68;100.00
58975;BME280;44751;52.236;5.178;2022-07-06T01:46:15;102451.72;;;12.88;100.00
58975;BME280;44751;52.236;5.178;2022-07-06T01:48:42;102456.81;;;12.91;100.00
58975;BME280;44751;52.236;5.178;2022-07-06T01:51:08;102454.63;;;13.13;100.00
58975;BME280;44751;52.236;5.178;2022-07-06T01:53:35;102457.34;;;13.32;99.94
58975;BME280;44751;52.236;5.178;2022-07-06T01:56:01;102468.78;;;13.25;100.00
58975;BME280;44751;52.236;5.178;2022-07-06T01:58:28;102461.25;;;13.37;99.95
58975;BME280;44751;52.236;5.178;2022-07-06T02:00:58;102458.88;;;13.34;99.32
58975;BME280;44751;52.236;5.178;2022-07-06T02:03:24;102454.16;;;13.18;100.00
58975;BME280;44751;52.236;5.178;2022-07-06T02:05:53;102456.78;;;13.28;100.00
58975;BME280;44751;52.236;5.178;2022-07-06T02:08:22;102451.53;;;13.26;100.00
58975;BME280;44751;52.236;5.178;2022-07-06T02:10:54;102455.09;;;13.27;100.00
58975;BME280;44751;52.236;5.178;2022-07-06T02:13:23;102448.34;;;13.31;100.00
58975;BME280;44751;52.236;5.178;2022-07-06T02:15:53;102453.59;;;13.33;100.00
58975;BME280;44751;52.236;5.178;2022-07-06T02:18:22;102447.38;;;13.40;100.00
58975;BME280;44751;52.236;5.178;2022-07-06T02:20:49;102461.44;;;13.36;99.85
58975;BME280;44751;52.236;5.178;2022-07-06T02:23:18;102450.97;;;13.41;99.83
58975;BME280;44751;52.236;5.178;2022-07-06T02:25:47;102447.75;;;13.46;99.66
58975;BME280;44751;52.236;5.178;2022-07-06T02:28:14;102454.97;;;13.55;98.06
58975;BME280;44751;52.236;5.178;2022-07-06T02:30:42;102448.22;;;13.59;98.67
58975;BME280;44751;52.236;5.178;2022-07-06T02:33:09;102452.72;;;13.50;98.21
58975;BME280;44751;52.236;5.178;2022-07-06T02:35:35;102458.00;;;13.52;98.05
58975;BME280;44751;52.236;5.178;2022-07-06T02:38:02;102459.84;;;13.51;97.98
58975;BME280;44751;52.236;5.178;2022-07-06T02:40:29;102450.66;;;13.44;98.14
58975;BME280;44751;52.236;5.178;2022-07-06T02:42:55;102458.38;;;13.57;97.48
58975;BME280;44751;52.236;5.178;2022-07-06T02:45:24;102460.94;;;13.59;97.93
58975;BME280;44751;52.236;5.178;2022-07-06T02:47:50;102464.66;;;13.58;97.84
58975;BME280;44751;52.236;5.178;2022-07-06T02:50:18;102448.91;;;13.61;98.32
58975;BME280;44751;52.236;5.178;2022-07-06T02:52:47;102461.28;;;13.64;97.45
58975;BME280;44751;52.236;5.178;2022-07-06T02:55:13;102472.47;;;13.61;97.55
58975;BME280;44751;52.236;5.178;2022-07-06T02:57:40;102465.81;;;13.55;97.45
58975;BME280;44751;52.236;5.178;2022-07-06T03:00:08;102461.69;;;13.69;97.32
58975;BME280;44751;52.236;5.178;2022-07-06T03:02:35;102464.91;;;13.73;98.40
58975;BME280;44751;52.236;5.178;2022-07-06T03:05:02;102467.47;;;13.74;97.60
58975;BME280;44751;52.236;5.178;2022-07-06T03:07:29;102468.13;;;13.68;97.32
58975;BME280;44751;52.236;5.178;2022-07-06T03:09:55;102464.59;;;13.76;96.82
58975;BME280;44751;52.236;5.178;2022-07-06T03:12:25;102471.16;;;13.65;97.08
58975;BME280;44751;52.236;5.178;2022-07-06T03:14:54;102467.22;;;13.59;98.10
58975;BME280;44751;52.236;5.178;2022-07-06T03:17:20;102472.31;;;13.62;97.17
58975;BME280;44751;52.236;5.178;2022-07-06T03:19:47;102465.22;;;13.69;97.30
58975;BME280;44751;52.236;5.178;2022-07-06T03:22:17;102473.75;;;13.75;97.21
58975;BME280;44751;52.236;5.178;2022-07-06T03:24:44;102464.22;;;13.71;97.11
58975;BME280;44751;52.236;5.178;2022-07-06T03:27:10;102469.16;;;13.49;98.26
58975;BME280;44751;52.236;5.178;2022-07-06T03:29:37;102466.34;;;13.40;99.03
58975;BME280;44751;52.236;5.178;2022-07-06T03:32:03;102476.31;;;13.50;99.13
58975;BME280;44751;52.236;5.178;2022-07-06T03:34:30;102479.75;;;13.60;97.45
58975;BME280;44751;52.236;5.178;2022-07-06T03:36:59;102471.56;;;13.52;97.94
58975;BME280;44751;52.236;5.178;2022-07-06T03:39:28;102468.25;;;13.40;97.73
58975;BME280;44751;52.236;5.178;2022-07-06T03:41:55;102464.16;;;13.36;98.00
58975;BME280;44751;52.236;5.178;2022-07-06T03:44:23;102458.06;;;13.42;98.65
58975;BME280;44751;52.236;5.178;2022-07-06T03:46:49;102450.97;;;13.41;98.73
58975;BME280;44751;52.236;5.178;2022-07-06T03:49:18;102457.53;;;13.57;98.34
58975;BME280;44751;52.236;5.178;2022-07-06T03:51:44;102443.81;;;13.58;96.55
58975;BME280;44751;52.236;5.178;2022-07-06T03:54:11;102456.34;;;13.59;97.32
58975;BME280;44751;52.236;5.178;2022-07-06T03:56:37;102458.38;;;13.57;97.69
58975;BME280;44751;52.236;5.178;2022-07-06T03:59:03;102455.94;;;13.72;96.79
58975;BME280;44751;52.236;5.178;2022-07-06T04:01:35;102466.91;;;13.62;97.17
58975;BME280;44751;52.236;5.178;2022-07-06T04:04:02;102466.91;;;13.62;98.13
58975;BME280;44751;52.236;5.178;2022-07-06T04:06:28;102459.00;;;13.77;97.57
58975;BME280;44751;52.236;5.178;2022-07-06T04:08:55;102452.09;;;13.83;97.79
58975;BME280;44751;52.236;5.178;2022-07-06T04:11:24;102453.28;;;13.80;97.89
58975;BME280;44751;52.236;5.178;2022-07-06T04:13:50;102445.41;;;13.69;98.61
58975;BME280;44751;52.236;5.178;2022-07-06T04:16:17;102452.41;;;13.80;98.79
58975;BME280;44751;52.236;5.178;2022-07-06T04:18:44;102460.44;;;13.90;98.89
58975;BME280;44751;52.236;5.178;2022-07-06T04:21:10;102458.38;;;13.92;98.08
58975;BME280;44751;52.236;5.178;2022-07-06T04:23:36;102464.00;;;13.90;98.61
58975;BME280;44751;52.236;5.178;2022-07-06T04:26:03;102466.53;;;13.92;98.54
58975;BME280;44751;52.236;5.178;2022-07-06T04:28:29;102471.16;;;14.00;98.01
58975;BME280;44751;52.236;5.178;2022-07-06T04:31:05;102469.63;;;13.97;98.59
58975;BME280;44751;52.236;5.178;2022-07-06T04:33:51;102461.09;;;13.92;98.76
58975;BME280;44751;52.236;5.178;2022-07-06T04:36:21;102458.22;;;13.93;98.97
58975;BME280;44751;52.236;5.178;2022-07-06T04:38:47;102460.78;;;13.95;99.67
58975;BME280;44751;52.236;5.178;2022-07-06T04:41:13;102452.00;;;14.01;98.54
58975;BME280;44751;52.236;5.178;2022-07-06T04:43:40;102463.38;;;14.05;99.00
58975;BME280;44751;52.236;5.178;2022-07-06T04:46:06;102462.59;;;14.21;98.60
58975;BME280;44751;52.236;5.178;2022-07-06T04:48:33;102456.28;;;14.12;98.67
58975;BME280;44751;52.236;5.178;2022-07-06T04:51:01;102465.31;;;14.21;98.53
58975;BME280;44751;52.236;5.178;2022-07-06T04:53:30;102460.53;;;14.15;98.67
58975;BME280;44751;52.236;5.178;2022-07-06T04:55:59;102459.34;;;14.17;99.46
58975;BME280;44751;52.236;5.178;2022-07-06T04:58:25;102461.44;;;14.24;98.46
58975;BME280;44751;52.236;5.178;2022-07-06T05:00:54;102465.03;;;14.32;98.78
58975;BME280;44751;52.236;5.178;2022-07-06T05:03:21;102465.72;;;14.43;99.30
58975;BME280;44751;52.236;5.178;2022-07-06T05:05:58;102473.59;;;14.63;99.25
58975;BME280;44751;52.236;5.178;2022-07-06T05:08:25;102471.56;;;14.65;98.46
58975;BME280;44751;52.236;5.178;2022-07-06T05:10:54;102470.75;;;14.81;98.36
58975;BME280;44751;52.236;5.178;2022-07-06T05:13:20;102477.88;;;14.82;98.25
58975;BME280;44751;52.236;5.178;2022-07-06T05:15:46;102475.34;;;14.89;97.67
58975;BME280;44751;52.236;5.178;2022-07-06T05:18:13;102469.75;;;14.90;96.88
58975;BME280;44751;52.236;5.178;2022-07-06T05:20:39;102470.44;;;14.84;96.57
58975;BME280;44751;52.236;5.178;2022-07-06T05:23:06;102477.66;;;14.58;97.25
58975;BME280;44751;52.236;5.178;2022-07-06T05:25:32;102483.97;;;14.67;96.16
58975;BME280;44751;52.236;5.178;2022-07-06T05:27:59;102472.56;;;14.72;96.15
58975;BME280;44751;52.236;5.178;2022-07-06T05:30:27;102484.28;;;14.64;97.22
58975;BME280;44751;52.236;5.178;2022-07-06T05:32:54;102473.25;;;14.57;96.69
58975;BME280;44751;52.236;5.178;2022-07-06T05:35:20;102474.94;;;14.67;97.36
58975;BME280;44751;52.236;5.178;2022-07-06T05:37:48;102489.13;;;14.87;96.59
58975;BME280;44751;52.236;5.178;2022-07-06T05:40:17;102482.66;;;14.80;96.08
58975;BME280;44751;52.236;5.178;2022-07-06T05:42:44;102482.63;;;14.71;97.49
58975;BME280;44751;52.236;5.178;2022-07-06T05:45:10;102484.34;;;14.89;95.49
58975;BME280;44751;52.236;5.178;2022-07-06T05:47:41;102499.16;;;14.95;95.70
58975;BME280;44751;52.236;5.178;2022-07-06T05:50:42;102489.97;;;14.96;95.27
58975;BME280;44751;52.236;5.178;2022-07-06T05:53:19;102492.84;;;15.11;93.64
58975;BME280;44751;52.236;5.178;2022-07-06T05:58:24;102487.94;;;15.23;91.87
58975;BME280;44751;52.236;5.178;2022-07-06T06:00:50;102488.63;;;15.17;92.72
58975;BME280;44751;52.236;5.178;2022-07-06T06:03:19;102492.38;;;15.16;90.60
58975;BME280;44751;52.236;5.178;2022-07-06T06:05:46;102493.38;;;15.15;91.32
58975;BME280;44751;52.236;5.178;2022-07-06T06:08:13;102497.13;;;15.22;89.85
58975;BME280;44751;52.236;5.178;2022-07-06T06:10:39;102493.06;;;15.26;88.36
58975;BME280;44751;52.236;5.178;2022-07-06T06:13:06;102490.34;;;15.34;89.21
58975;BME280;44751;52.236;5.178;2022-07-06T06:15:32;102494.91;;;15.42;87.31
58975;BME280;44751;52.236;5.178;2022-07-06T06:18:00;102498.28;;;15.61;87.26
58975;BME280;44751;52.236;5.178;2022-07-06T06:20:32;102493.91;;;15.52;86.41
58975;BME280;44751;52.236;5.178;2022-07-06T06:22:59;102497.25;;;15.70;87.48
58975;BME280;44751;52.236;5.178;2022-07-06T06:25:34;102502.47;;;16.05;84.42
58975;BME280;44751;52.236;5.178;2022-07-06T06:28:06;102501.72;;;16.20;81.68
58975;BME280;44751;52.236;5.178;2022-07-06T06:30:33;102503.19;;;16.39;79.71
58975;BME280;44751;52.236;5.178;2022-07-06T06:33:19;102505.75;;;16.32;78.58
58975;BME280;44751;52.236;5.178;2022-07-06T06:35:48;102507.03;;;16.76;77.95
58975;BME280;44751;52.236;5.178;2022-07-06T06:38:18;102503.78;;;16.81;76.13
58975;BME280;44751;52.236;5.178;2022-07-06T06:40:47;102512.16;;;16.80;77.34
58975;BME280;44751;52.236;5.178;2022-07-06T06:43:14;102510.75;;;17.15;74.81
58975;BME280;44751;52.236;5.178;2022-07-06T06:45:41;102511.25;;;17.34;74.68
58975;BME280;44751;52.236;5.178;2022-07-06T06:48:09;102517.88;;;17.55;72.26
58975;BME280;44751;52.236;5.178;2022-07-06T06:50:35;102510.03;;;17.75;72.50
58975;BME280;44751;52.236;5.178;2022-07-06T06:53:02;102509.41;;;17.50;71.78
58975;BME280;44751;52.236;5.178;2022-07-06T06:55:31;102506.75;;;17.26;70.54
58975;BME280;44751;52.236;5.178;2022-07-06T06:57:57;102505.16;;;17.32;71.50
58975;BME280;44751;52.236;5.178;2022-07-06T07:00:24;102509.84;;;17.77;70.75
58975;BME280;44751;52.236;5.178;2022-07-06T07:02:56;102508.47;;;17.42;70.32
58975;BME280;44751;52.236;5.178;2022-07-06T07:05:23;102502.47;;;17.77;70.09
58975;BME280;44751;52.236;5.178;2022-07-06T07:07:49;102510.88;;;18.06;69.96
58975;BME280;44751;52.236;5.178;2022-07-06T07:10:16;102511.56;;;18.60;68.59
58975;BME280;44751;52.236;5.178;2022-07-06T07:12:46;102512.13;;;18.92;66.82
58975;BME280;44751;52.236;5.178;2022-07-06T07:15:13;102516.09;;;18.90;62.83
58975;BME280;44751;52.236;5.178;2022-07-06T07:17:40;102505.38;;;17.46;66.49
58975;BME280;44751;52.236;5.178;2022-07-06T07:20:10;102517.47;;;17.97;65.89
58975;BME280;44751;52.236;5.178;2022-07-06T07:22:38;102511.66;;;18.30;65.35
58975;BME280;44751;52.236;5.178;2022-07-06T07:25:05;102512.78;;;17.37;65.64
58975;BME280;44751;52.236;5.178;2022-07-06T07:27:32;102513.66;;;17.14;67.74
58975;BME280;44751;52.236;5.178;2022-07-06T07:29:59;102509.84;;;17.92;68.06
58975;BME280;44751;52.236;5.178;2022-07-06T07:32:28;102507.50;;;18.34;63.00
58975;BME280;44751;52.236;5.178;2022-07-06T07:35:00;102517.78;;;19.06;62.13
58975;BME280;44751;52.236;5.178;2022-07-06T07:37:30;102513.53;;;19.25;62.37
58975;BME280;44751;52.236;5.178;2022-07-06T07:39:56;102522.72;;;19.39;60.35
58975;BME280;44751;52.236;5.178;2022-07-06T07:42:23;102513.56;;;19.89;57.92
58975;BME280;44751;52.236;5.178;2022-07-06T07:44:52;102516.72;;;20.21;58.64
58975;BME280;44751;52.236;5.178;2022-07-06T07:47:19;102513.03;;;20.49;57.25
58975;BME280;44751;52.236;5.178;2022-07-06T07:49:53;102512.38;;;19.63;56.85
58975;BME280;44751;52.236;5.178;2022-07-06T07:52:19;102511.19;;;18.63;59.35
58975;BME280;44751;52.236;5.178;2022-07-06T07:54:45;102516.75;;;18.18;61.74
58975;BME280;44751;52.236;5.178;2022-07-06T07:57:12;102516.06;;;18.31;61.72
58975;BME280;44751;52.236;5.178;2022-07-06T07:59:38;102515.09;;;19.13;59.75
58975;BME280;44751;52.236;5.178;2022-07-06T08:02:05;102518.91;;;18.96;59.17
58975;BME280;44751;52.236;5.178;2022-07-06T08:04:45;102511.94;;;18.72;61.09
58975;BME280;44751;52.236;5.178;2022-07-06T08:07:12;102507.97;;;19.69;58.46
58975;BME280;44751;52.236;5.178;2022-07-06T08:09:38;102515.63;;;19.23;57.50
58975;BME280;44751;52.236;5.178;2022-07-06T08:12:05;102513.88;;;19.15;57.62
58975;BME280;44751;52.236;5.178;2022-07-06T08:14:31;102512.28;;;19.28;57.38
58975;BME280;44751;52.236;5.178;2022-07-06T08:16:58;102513.53;;;19.25;55.93
58975;BME280;44751;52.236;5.178;2022-07-06T08:19:30;102505.28;;;18.81;57.10
58975;BME280;44751;52.236;5.178;2022-07-06T08:21:57;102516.06;;;19.27;56.79
58975;BME280;44751;52.236;5.178;2022-07-06T08:24:25;102510.59;;;20.12;56.31
58975;BME280;44751;52.236;5.178;2022-07-06T08:26:54;102509.31;;;20.64;53.93
58975;BME280;44751;52.236;5.178;2022-07-06T08:29:23;102511.41;;;20.13;55.44
58975;BME280;44751;52.236;5.178;2022-07-06T08:31:49;102513.44;;;19.97;57.59
58975;BME280;44751;52.236;5.178;2022-07-06T08:34:31;102503.28;;;19.91;54.15
58975;BME280;44751;52.236;5.178;2022-07-06T08:36:57;102513.72;;;19.45;55.90
58975;BME280;44751;52.236;5.178;2022-07-06T08:39:24;102511.19;;;19.44;55.29
58975;BME280;44751;52.236;5.178;2022-07-06T08:41:50;102503.31;;;20.40;54.81
58975;BME280;44751;52.236;5.178;2022-07-06T08:44:18;102503.22;;;20.82;49.93
58975;BME280;44751;52.236;5.178;2022-07-06T08:46:45;102513.50;;;20.53;50.37
58975;BME280;44751;52.236;5.178;2022-07-06T08:49:16;102499.97;;;20.45;47.50
58975;BME280;44751;52.236;5.178;2022-07-06T08:51:45;102502.75;;;20.58;48.30
58975;BME280;44751;52.236;5.178;2022-07-06T08:54:12;102503.06;;;21.45;47.16
58975;BME280;44751;52.236;5.178;2022-07-06T08:56:39;102495.47;;;21.53;47.15
58975;BME280;44751;52.236;5.178;2022-07-06T08:59:05;102499.91;;;20.94;48.60
58975;BME280;44751;52.236;5.178;2022-07-06T09:01:35;102503.09;;;21.24;47.97
58975;BME280;44751;52.236;5.178;2022-07-06T09:04:03;102498.03;;;21.35;46.51
58975;BME280;44751;52.236;5.178;2022-07-06T09:06:31;102497.16;;;21.82;48.51
58975;BME280;44751;52.236;5.178;2022-07-06T09:08:58;102497.78;;;21.84;47.57
58975;BME280;44751;52.236;5.178;2022-07-06T09:11:25;102491.00;;;21.66;47.71
58975;BME280;44751;52.236;5.178;2022-07-06T09:13:54;102496.97;;;21.42;45.46
58975;BME280;44751;52.236;5.178;2022-07-06T09:16:30;102499.81;;;20.73;47.29
58975;BME280;44751;52.236;5.178;2022-07-06T09:18:57;102503.88;;;19.86;49.78
58975;BME280;44751;52.236;5.178;2022-07-06T09:21:31;102498.00;;;19.90;50.84
58975;BME280;44751;52.236;5.178;2022-07-06T09:24:00;102508.25;;;20.58;50.24
58975;BME280;44751;52.236;5.178;2022-07-06T09:26:28;102493.78;;;21.79;48.15
58975;BME280;44751;52.236;5.178;2022-07-06T09:28:56;102500.78;;;21.08;49.13
58975;BME280;44751;52.236;5.178;2022-07-06T09:31:24;102500.34;;;21.18;48.87
58975;BME280;44751;52.236;5.178;2022-07-06T09:34:02;102502.28;;;21.31;48.31
58975;BME280;44751;52.236;5.178;2022-07-06T09:36:43;102516.69;;;20.63;49.66
58975;BME280;44751;52.236;5.178;2022-07-06T09:39:29;102499.59;;;19.77;51.97
58975;BME280;44751;52.236;5.178;2022-07-06T09:42:00;102504.03;;;19.78;52.03
58975;BME280;44751;52.236;5.178;2022-07-06T09:44:30;102506.19;;;19.83;51.12
58975;BME280;44751;52.236;5.178;2022-07-06T09:47:01;102507.72;;;19.35;51.60
58975;BME280;44751;52.236;5.178;2022-07-06T09:49:28;102509.53;;;19.85;51.73
58975;BME280;44751;52.236;5.178;2022-07-06T09:51:57;102522.69;;;20.32;50.67
58975;BME280;44751;52.236;5.178;2022-07-06T09:54:25;102520.47;;;20.56;49.44
58975;BME280;44751;52.236;5.178;2022-07-06T09:56:55;102516.41;;;20.38;51.25
58975;BME280;44751;52.236;5.178;2022-07-06T09:59:30;102511.00;;;20.65;49.46
58975;BME280;44751;52.236;5.178;2022-07-06T10:02:03;102514.91;;;21.65;48.29
58975;BME280;44751;52.236;5.178;2022-07-06T10:04:30;102511.03;;;22.66;45.85
58975;BME280;44751;52.236;5.178;2022-07-06T10:07:07;102507.94;;;23.14;45.46
58975;BME280;44751;52.236;5.178;2022-07-06T10:09:43;102519.28;;;22.53;44.35
58975;BME280;44751;52.236;5.178;2022-07-06T10:12:13;102512.59;;;21.76;44.84
58975;BME280;44751;52.236;5.178;2022-07-06T10:14:51;102512.63;;;22.35;42.92
58975;BME280;44751;52.236;5.178;2022-07-06T10:17:18;102517.22;;;24.08;42.10
58975;BME280;44751;52.236;5.178;2022-07-06T10:19:46;102512.22;;;22.31;44.30
58975;BME280;44751;52.236;5.178;2022-07-06T10:22:14;102521.66;;;21.09;45.05
58975;BME280;44751;52.236;5.178;2022-07-06T10:24:43;102508.97;;;20.94;46.00
58975;BME280;44751;52.236;5.178;2022-07-06T10:27:10;102504.06;;;22.64;43.22
58975;BME280;44751;52.236;5.178;2022-07-06T10:29:37;102514.25;;;23.46;42.24
58975;BME280;44751;52.236;5.178;2022-07-06T10:32:03;102504.44;;;23.00;43.40
58975;BME280;44751;52.236;5.178;2022-07-06T10:34:30;102499.97;;;22.21;43.28
58975;BME280;44751;52.236;5.178;2022-07-06T10:36:56;102503.47;;;21.89;43.95
58975;BME280;44751;52.236;5.178;2022-07-06T10:39:37;102499.28;;;21.12;44.91
58975;BME280;44751;52.236;5.178;2022-07-06T10:45:12;102497.53;;;21.99;45.21
58975;BME280;44751;52.236;5.178;2022-07-06T10:47:42;102495.06;;;22.75;44.00
58975;BME280;44751;52.236;5.178;2022-07-06T10:50:11;102501.25;;;23.03;42.78
58975;BME280;44751;52.236;5.178;2022-07-06T10:52:51;102500.81;;;23.57;40.75
58975;BME280;44751;52.236;5.178;2022-07-06T10:57:58;102486.19;;;21.41;44.86
58975;BME280;44751;52.236;5.178;2022-07-06T11:00:25;102486.81;;;20.89;46.35
58975;BME280;44751;52.236;5.178;2022-07-06T11:02:51;102479.22;;;20.98;46.33
58975;BME280;44751;52.236;5.178;2022-07-06T11:05:40;102483.09;;;22.17;45.45
58975;BME280;44751;52.236;5.178;2022-07-06T11:08:09;102484.16;;;22.09;43.08
58975;BME280;44751;52.236;5.178;2022-07-06T11:10:48;102483.91;;;22.70;42.18
58975;BME280;44751;52.236;5.178;2022-07-06T11:13:27;102473.78;;;22.18;43.37
58975;BME280;44751;52.236;5.178;2022-07-06T11:16:01;102469.19;;;23.15;42.02
58975;BME280;44751;52.236;5.178;2022-07-06T11:18:28;102470.41;;;22.94;41.65
58975;BME280;44751;52.236;5.178;2022-07-06T11:21:27;102470.78;;;22.65;40.59
58975;BME280;44751;52.236;5.178;2022-07-06T11:23:58;102467.00;;;22.66;41.60
58975;BME280;44751;52.236;5.178;2022-07-06T11:26:24;102456.00;;;22.92;40.95
58975;BME280;44751;52.236;5.178;2022-07-06T11:28:51;102464.78;;;23.33;41.30
58975;BME280;44751;52.236;5.178;2022-07-06T11:31:18;102455.81;;;23.44;40.85
58975;BME280;44751;52.236;5.178;2022-07-06T11:33:47;102442.97;;;24.13;40.04
58975;BME280;44751;52.236;5.178;2022-07-06T11:36:18;102452.34;;;24.24;39.03
58975;BME280;44751;52.236;5.178;2022-07-06T11:38:46;102446.88;;;23.24;40.36
58975;BME280;44751;52.236;5.178;2022-07-06T11:41:13;102451.50;;;23.23;40.76
58975;BME280;44751;52.236;5.178;2022-07-06T11:43:44;102442.78;;;23.70;40.03
58975;BME280;44751;52.236;5.178;2022-07-06T11:48:50;102448.94;;;23.91;38.82
58975;BME280;44751;52.236;5.178;2022-07-06T11:51:17;102425.50;;;23.19;39.60
58975;BME280;44751;52.236;5.178;2022-07-06T11:53:50;102437.81;;;23.98;40.03
58975;BME280;44751;52.236;5.178;2022-07-06T11:56:17;102438.06;;;24.15;41.46
58975;BME280;44751;52.236;5.178;2022-07-06T11:58:49;102438.53;;;24.85;40.32
58975;BME280;44751;52.236;5.178;2022-07-06T12:01:16;102449.78;;;24.84;37.17
58975;BME280;44751;52.236;5.178;2022-07-06T12:03:43;102442.81;;;23.52;39.55
58975;BME280;44751;52.236;5.178;2022-07-06T12:06:21;102440.72;;;22.96;40.24
58975;BME280;44751;52.236;5.178;2022-07-06T12:08:52;102449.72;;;22.85;41.10
58975;BME280;44751;52.236;5.178;2022-07-06T12:11:29;102440.38;;;22.60;42.18
58975;BME280;44751;52.236;5.178;2022-07-06T12:13:58;102431.56;;;23.28;42.83
58975;BME280;44751;52.236;5.178;2022-07-06T12:16:44;102439.50;;;23.99;42.24
58975;BME280;44751;52.236;5.178;2022-07-06T12:19:11;102429.66;;;23.72;40.38
58975;BME280;44751;52.236;5.178;2022-07-06T12:21:47;102436.84;;;23.92;39.26
58975;BME280;44751;52.236;5.178;2022-07-06T12:24:19;102430.25;;;23.56;39.68
58975;BME280;44751;52.236;5.178;2022-07-06T12:26:46;102428.47;;;22.92;41.43
58975;BME280;44751;52.236;5.178;2022-07-06T12:29:13;102419.22;;;23.37;41.91
58975;BME280;44751;52.236;5.178;2022-07-06T12:34:13;102429.25;;;23.25;39.45
58975;BME280;44751;52.236;5.178;2022-07-06T12:39:18;102437.97;;;23.84;38.60
58975;BME280;44751;52.236;5.178;2022-07-06T12:41:53;102425.81;;;23.73;39.36
58975;BME280;44751;52.236;5.178;2022-07-06T12:44:23;102418.84;;;23.08;39.91
58975;BME280;44751;52.236;5.178;2022-07-06T12:47:01;102423.25;;;23.09;40.71
58975;BME280;44751;52.236;5.178;2022-07-06T12:49:28;102418.41;;;23.74;39.39
58975;BME280;44751;52.236;5.178;2022-07-06T12:54:42;102418.63;;;23.28;40.57
58975;BME280;44751;52.236;5.178;2022-07-06T12:57:11;102414.09;;;23.41;40.32
58975;BME280;44751;52.236;5.178;2022-07-06T12:59:47;102404.78;;;22.91;40.76
58975;BME280;44751;52.236;5.178;2022-07-06T13:02:34;102410.38;;;23.28;40.76
58975;BME280;44751;52.236;5.178;2022-07-06T13:05:07;102407.16;;;22.87;42.11
58975;BME280;44751;52.236;5.178;2022-07-06T13:07:36;102405.91;;;23.08;41.11
58975;BME280;44751;52.236;5.178;2022-07-06T13:10:04;102411.00;;;23.30;42.65
58975;BME280;44751;52.236;5.178;2022-07-06T13:12:31;102403.09;;;23.78;41.62
58975;BME280;44751;52.236;5.178;2022-07-06T13:14:58;102400.00;;;24.05;40.55
58975;BME280;44751;52.236;5.178;2022-07-06T13:17:24;102391.59;;;23.44;40.88